createdAt,value
2023-01-06T00:00:01.941Z,-24.75
2023-01-06T00:05:27.472Z,-24.53
2023-01-06T00:10:49.589Z,-24.74
2023-01-06T00:16:16.981Z,-24.61
2023-01-06T00:21:39.571Z,-24.68
2023-01-06T00:27:07.651Z,-24.73
2023-01-06T00:32:29.994Z,-24.95
2023-01-06T00:37:57.842Z,-25.05
2023-01-06T00:43:22.163Z,-24.92
2023-01-06T00:49:04.207Z,-25.13
2023-01-06T00:54:36.328Z,-25.17
2023-01-06T01:00:00.811Z,-25.40
2023-01-06T01:05:24.959Z,-25.38
2023-01-06T01:10:47.113Z,-25.26
2023-01-06T01:16:10.405Z,-25.36
2023-01-06T01:21:38.637Z,-25.48
2023-01-06T01:27:00.704Z,-25.38
2023-01-06T01:32:22.692Z,-25.49
2023-01-06T01:37:46.186Z,-25.52
2023-01-06T01:43:11.184Z,-25.52
2023-01-06T01:48:35.946Z,-25.43
2023-01-06T01:54:01.440Z,-25.46
2023-01-06T01:59:31.390Z,-25.43
2023-01-06T02:04:55.902Z,-25.50
2023-01-06T02:10:22.911Z,-25.64
2023-01-06T02:15:51.402Z,-25.81
2023-01-06T02:21:48.833Z,-25.85
2023-01-06T02:27:30.774Z,-25.73
2023-01-06T02:33:01.805Z,-26.02
2023-01-06T02:38:33.285Z,-26.01
2023-01-06T02:44:11.213Z,-25.77
2023-01-06T02:49:48.296Z,-25.85
2023-01-06T02:55:22.401Z,-25.73
2023-01-06T03:00:58.221Z,-25.98
2023-01-06T03:06:30.400Z,-25.77
2023-01-06T03:11:54.041Z,-25.76
2023-01-06T03:17:16.122Z,-25.84
2023-01-06T03:22:39.523Z,-25.94
2023-01-06T03:28:02.298Z,-26.02
2023-01-06T03:33:57.932Z,-26.18
2023-01-06T03:39:33.114Z,-26.22
2023-01-06T03:45:04.420Z,-26.23
2023-01-06T03:50:47.815Z,-26.13
2023-01-06T03:56:39.852Z,-26.20
2023-01-06T04:02:03.994Z,-26.28
2023-01-06T04:07:29.522Z,-26.44
2023-01-06T04:12:53.130Z,-26.39
2023-01-06T04:18:20.132Z,-26.52
2023-01-06T04:23:43.461Z,-26.29
2023-01-06T04:29:05.467Z,-26.39
2023-01-06T04:34:30.354Z,-26.27
2023-01-06T04:39:55.733Z,-26.41
2023-01-06T04:45:20.413Z,-26.45
2023-01-06T04:50:45.038Z,-26.34
2023-01-06T04:56:16.010Z,-26.52
2023-01-06T05:07:22.110Z,-26.34
2023-01-06T05:12:43.832Z,-26.37
2023-01-06T05:18:06.048Z,-26.36
2023-01-06T05:23:27.963Z,-26.40
2023-01-06T05:28:50.303Z,-26.44
2023-01-06T05:34:12.631Z,-26.48
2023-01-06T05:39:34.411Z,-26.52
2023-01-06T05:44:56.661Z,-26.70
2023-01-06T05:50:22.009Z,-26.60
2023-01-06T05:55:45.789Z,-26.68
2023-01-06T06:01:16.596Z,-26.73
2023-01-06T06:06:38.877Z,-26.70
2023-01-06T06:12:01.174Z,-26.88
2023-01-06T06:17:23.558Z,-26.66
2023-01-06T06:22:47.801Z,-26.60
2023-01-06T06:28:13.219Z,-26.53
2023-01-06T06:33:43.613Z,-26.33
2023-01-06T06:39:05.847Z,-26.46
2023-01-06T06:44:33.424Z,-26.38
2023-01-06T06:49:55.631Z,-26.11
2023-01-06T06:55:20.139Z,-25.90
2023-01-06T07:00:45.745Z,-25.69
2023-01-06T07:06:09.974Z,-25.69
2023-01-06T07:11:32.363Z,-25.28
2023-01-06T07:17:00.337Z,-25.20
2023-01-06T07:22:27.324Z,-25.00
2023-01-06T07:27:56.269Z,-24.76
2023-01-06T07:33:20.164Z,-24.59
2023-01-06T07:38:42.334Z,-24.48
2023-01-06T07:44:06.761Z,-24.49
2023-01-06T07:49:52.917Z,-24.15
2023-01-06T07:55:18.004Z,-24.09
2023-01-06T08:00:41.043Z,-23.94
2023-01-06T08:06:11.384Z,-23.82
2023-01-06T08:11:33.542Z,-23.67
2023-01-06T08:16:56.288Z,-23.54
2023-01-06T08:22:25.045Z,-23.31
2023-01-06T08:27:50.410Z,-23.35
2023-01-06T08:33:17.191Z,-23.28
2023-01-06T08:38:48.212Z,-23.24
2023-01-06T08:44:10.859Z,-23.32
2023-01-06T08:49:33.290Z,-23.12
2023-01-06T08:55:08.221Z,-23.21
2023-01-06T09:00:30.644Z,-23.20
2023-01-06T09:05:59.567Z,-23.16
2023-01-06T09:11:21.843Z,-22.96
2023-01-06T09:16:55.090Z,-22.98
2023-01-06T09:22:17.776Z,-22.84
2023-01-06T09:27:42.800Z,-22.92
2023-01-06T09:33:07.501Z,-22.77
2023-01-06T09:38:29.853Z,-22.57
2023-01-06T09:44:19.725Z,-22.34
2023-01-06T09:49:50.901Z,-22.33
2023-01-06T09:55:20.360Z,-22.24
2023-01-06T10:00:53.386Z,-22.18
2023-01-06T10:07:11.698Z,-22.05
2023-01-06T10:12:42.133Z,-22.05
2023-01-06T10:18:32.775Z,-22.07
2023-01-06T10:23:58.748Z,-22.07
2023-01-06T10:29:21.859Z,-22.21
2023-01-06T10:34:51.192Z,-22.26
2023-01-06T10:40:21.837Z,-22.27
2023-01-06T10:45:46.886Z,-22.09
2023-01-06T10:51:41.288Z,-21.97
2023-01-06T10:57:16.315Z,-22.27
2023-01-06T11:02:46.128Z,-22.39
2023-01-06T11:08:18.300Z,-22.28
2023-01-06T11:13:42.478Z,-22.23
2023-01-06T11:19:22.245Z,-22.31
2023-01-06T11:24:55.454Z,-22.23
2023-01-06T12:11:25.660Z,-23.06
2023-01-06T12:16:48.380Z,-23.05
2023-01-06T12:22:48.212Z,-23.29
2023-01-06T12:28:28.633Z,-23.32
2023-01-06T12:34:13.131Z,-23.65
2023-01-06T12:40:06.161Z,-23.57
2023-01-06T12:46:04.123Z,-23.86
2023-01-06T12:51:28.901Z,-23.87
2023-01-06T12:57:09.249Z,-23.96
2023-01-06T13:02:55.749Z,-24.08
2023-01-06T13:08:38.037Z,-24.19
2023-01-06T13:14:09.129Z,-24.31
2023-01-06T13:19:53.358Z,-24.34
2023-01-06T13:25:35.912Z,-24.47
2023-01-06T13:31:50.159Z,-24.56
2023-01-06T13:37:22.609Z,-24.93
2023-01-06T13:42:52.738Z,-24.75
2023-01-06T13:48:22.288Z,-25.07
2023-01-06T13:53:46.648Z,-24.84
2023-01-06T13:59:54.039Z,-25.09
2023-01-06T14:05:43.848Z,-24.94
2023-01-06T14:11:27.934Z,-25.04
2023-01-06T14:16:51.263Z,-25.34
2023-01-06T14:22:37.788Z,-25.44
2023-01-06T14:27:59.762Z,-25.42
2023-01-06T14:33:42.300Z,-25.49
2023-01-06T14:39:27.458Z,-25.59
2023-01-06T14:44:56.052Z,-25.51
2023-01-06T14:50:41.890Z,-25.66
2023-01-06T14:56:14.458Z,-25.70
2023-01-06T15:01:36.896Z,-25.70
2023-01-06T15:07:19.188Z,-25.82
2023-01-06T15:12:52.650Z,-26.11
2023-01-06T15:18:19.077Z,-26.07
2023-01-06T15:23:45.979Z,-26.14
2023-01-06T15:29:16.197Z,-26.23
2023-01-06T15:34:43.987Z,-26.40
2023-01-06T15:40:08.203Z,-26.44
2023-01-06T15:45:32.968Z,-26.48
2023-01-06T15:50:54.579Z,-26.60
2023-01-06T15:56:36.551Z,-26.73
2023-01-06T16:01:58.949Z,-26.84
2023-01-06T16:07:25.421Z,-26.81
2023-01-06T16:12:47.427Z,-26.73
2023-01-06T16:18:10.721Z,-26.86
2023-01-06T16:23:34.898Z,-27.00
2023-01-06T16:29:00.227Z,-27.14
2023-01-06T16:34:24.702Z,-27.15
2023-01-06T16:39:47.082Z,-27.40
2023-01-06T16:45:17.913Z,-27.63
2023-01-06T16:50:41.898Z,-27.77
2023-01-06T16:56:07.402Z,-27.70
2023-01-06T17:01:30.026Z,-27.82
2023-01-06T17:06:52.462Z,-28.07
2023-01-06T17:12:35.206Z,-27.95
2023-01-06T17:17:57.133Z,-27.96
2023-01-06T17:23:19.213Z,-27.79
2023-01-06T17:28:43.942Z,-28.01
2023-01-06T17:34:35.323Z,-28.08
2023-01-06T17:39:58.419Z,-28.00
2023-01-06T17:45:26.324Z,-28.01
2023-01-06T17:50:57.458Z,-28.02
2023-01-06T17:56:23.112Z,-28.20
2023-01-06T18:01:53.533Z,-28.09
2023-01-06T18:07:15.941Z,-28.40
2023-01-06T18:12:47.190Z,-28.60
2023-01-06T18:18:34.202Z,-28.58
2023-01-06T18:23:59.673Z,-28.54
2023-01-06T18:29:27.316Z,-28.42
2023-01-06T18:35:18.063Z,-28.72
2023-01-06T18:40:40.715Z,-28.58
2023-01-06T18:46:17.196Z,-28.78
2023-01-06T18:51:46.481Z,-28.97
2023-01-06T18:57:30.710Z,-28.92
2023-01-06T19:02:59.400Z,-29.04
2023-01-06T19:08:35.077Z,-28.85
2023-01-06T19:14:01.820Z,-28.83
2023-01-06T19:19:41.023Z,-28.90
2023-01-06T19:25:42.834Z,-29.10
2023-01-06T19:31:06.351Z,-29.20
2023-01-06T19:36:44.346Z,-29.27
2023-01-06T19:42:09.235Z,-29.23
2023-01-06T19:47:52.679Z,-29.17
2023-01-06T19:53:49.662Z,-28.97
2023-01-06T19:59:37.593Z,-28.80
2023-01-06T20:11:28.600Z,-28.66
2023-01-06T20:17:25.212Z,-28.81
2023-01-06T20:29:31.579Z,-28.31
2023-01-06T20:41:07.940Z,-28.34
2023-01-06T20:46:53.911Z,-28.61
2023-01-06T20:52:40.054Z,-28.33
2023-01-06T20:58:26.199Z,-28.27
2023-01-06T21:03:48.490Z,-28.48
2023-01-06T21:09:10.790Z,-28.30
2023-01-06T21:14:34.460Z,-28.50
2023-01-06T21:19:59.242Z,-28.43
2023-01-06T21:25:25.220Z,-28.45
2023-01-06T21:30:47.569Z,-28.45
2023-01-06T21:36:09.864Z,-28.30
2023-01-06T21:41:50.619Z,-28.31
2023-01-06T21:47:12.776Z,-28.16
2023-01-06T21:52:34.745Z,-28.60
2023-01-06T21:58:00.271Z,-28.67
2023-01-06T22:03:28.452Z,-28.84
2023-01-06T22:08:57.030Z,-28.97
2023-01-06T22:14:37.764Z,-29.12
2023-01-06T22:20:10.635Z,-29.06
2023-01-06T22:26:07.442Z,-28.95
2023-01-06T22:32:00.328Z,-29.30
2023-01-06T22:37:38.240Z,-29.39
2023-01-06T22:43:12.384Z,-29.69
2023-01-06T22:54:47.144Z,-29.38
2023-01-06T23:00:20.272Z,-29.40
2023-01-06T23:05:53.021Z,-29.68
2023-01-06T23:11:45.992Z,-29.47
2023-01-06T23:17:21.413Z,-29.33
2023-01-06T23:23:15.747Z,-29.54
2023-01-06T23:28:56.517Z,-29.83
2023-01-06T23:34:50.205Z,-30.06
2023-01-06T23:40:26.616Z,-30.17
2023-01-06T23:46:18.950Z,-30.39
2023-01-06T23:52:03.910Z,-30.39
2023-01-06T23:57:29.612Z,-30.33
